Aeroporto :
LOGIN :

Iscrizione | Disclaimer

   EN    FR    IT 

 










Sommario :    VFR   VFR Marginale   IFR   IFR Intensivo   IFR Molto Intensivo
Visibilità : 
Base nubi : 
>= 8 km
>= 3000ft
5 / 8 km
1000 / 3000 ft
1500m / 5 km
500 / 1000 ft
800 / 1500m
200 / 500 ft
< 800m
< 200 ft
Simboli :   Temporali  Nebbia  Neve Forte  Precipitazioni Forti  Vento > 20 kt
SIGMETs :   Varie  Temporali  Ghiacco  Turbolenza  Onda orograficha  Ceneri Vulcaniche






- Altitudine del aeroporto : 195 ft


LFMY - Salon de Provence

ULTIMO METAR :
  • 220400Z AUTO 01004KT 7000 RA ///CB 15/15 Q1019

METARs OBSOLETI :
  • 220330Z AUTO 06003KT 9000 RA ///TCU 15/15 Q1019
  • 220300Z AUTO 12003KT 070V150 9999 -RA ///TCU 15/14 Q1019
  • 220230Z AUTO 35007KT 320V020 CAVOK 15/14 Q1019
  • 220200Z AUTO 31007KT 280V340 9999 -RA FEW036/// OVC110/// ///TCU 15/14 Q1019
  • 220130Z AUTO 03003KT 350V100 9999 -RA ///TCU 15/14 Q1019

TAF TAF LFMY
Valido dal 21 a 15 ore il 22 a 15 ore UTC


211400Z 2115/2215 16010KT 9999 SCT025 SCT040
TEMPO 2115/2123 5000 -RA
BECMG 2116/2118 10010KT
BECMG 2209/2212 10015G25KT



MetMap, La meteo Aeronautica in un colpo d'occhio ! - Copyright ORBIFLY Dicembre 2007 - Disclaimer

ORBIFLY MET'MAP TEAM :

Programmazione e sviluppo : Alexandra Zaïnal
Concezione e sviluppo : Baudouin d'Aumeries
Co-Programmazione e sviluppo : Marc-Olivier Méhu
Supporto tecnico e logistico : Manuel Goepfert
Aiuto per la traduzione : Arnaldo La Scala

Contatto : metmap@orbifly.com




FONTI E CREDITI :

   NOAA